createdAt,value
2018-10-18T00:00:19.300Z,80.63
2018-10-18T00:02:46.698Z,80.79
2018-10-18T00:05:14.180Z,80.85
2018-10-18T00:07:41.581Z,80.89
2018-10-18T00:10:09.212Z,81.41
2018-10-18T00:12:36.980Z,81.65
2018-10-18T00:15:05.119Z,81.64
2018-10-18T00:17:38.273Z,81.94
2018-10-18T00:20:06.019Z,81.64
2018-10-18T00:22:33.445Z,81.83
2018-10-18T00:25:00.965Z,81.68
2018-10-18T00:27:28.418Z,82.06
2018-10-18T00:29:55.852Z,82.15
2018-10-18T00:32:23.326Z,82.64
2018-10-18T00:34:50.712Z,82.39
2018-10-18T00:37:18.164Z,81.90
2018-10-18T00:39:45.619Z,81.80
2018-10-18T00:42:13.114Z,80.78
2018-10-18T00:44:40.511Z,80.54
2018-10-18T00:47:07.924Z,80.10
2018-10-18T00:49:35.334Z,80.20
2018-10-18T00:52:02.803Z,79.68
2018-10-18T00:54:30.236Z,79.79
2018-10-18T00:56:57.684Z,79.87
2018-10-18T00:59:25.094Z,79.61
2018-10-18T01:01:52.586Z,79.84
2018-10-18T01:04:19.980Z,79.84
2018-10-18T01:06:47.413Z,80.02
2018-10-18T01:09:14.999Z,80.23
2018-10-18T01:11:42.352Z,79.92
2018-10-18T01:14:10.661Z,80.45
2018-10-18T01:16:38.044Z,80.27
2018-10-18T01:19:05.522Z,80.71
2018-10-18T01:21:33.044Z,80.84
2018-10-18T01:24:00.610Z,80.74
2018-10-18T01:26:28.028Z,81.10
2018-10-18T01:28:55.390Z,80.73
2018-10-18T01:31:22.828Z,81.35
2018-10-18T01:33:50.192Z,81.41
2018-10-18T01:36:17.773Z,81.50
2018-10-18T01:38:45.134Z,81.38
2018-10-18T01:41:12.703Z,81.52
2018-10-18T01:43:40.164Z,81.60
2018-10-18T01:46:07.656Z,81.98
2018-10-18T01:48:35.046Z,82.05
2018-10-18T01:51:02.584Z,81.99
2018-10-18T01:53:30.073Z,82.62
2018-10-18T01:55:57.609Z,82.81
2018-10-18T01:58:25.158Z,82.99
2018-10-18T02:00:52.667Z,82.94
2018-10-18T02:03:20.116Z,83.26
2018-10-18T02:05:47.516Z,83.42
2018-10-18T02:08:15.218Z,83.57
2018-10-18T02:10:42.674Z,83.81
2018-10-18T02:13:10.068Z,83.94
2018-10-18T02:15:37.456Z,83.99
2018-10-18T02:18:05.233Z,84.13
2018-10-18T02:20:32.644Z,84.31
2018-10-18T02:23:00.079Z,84.46
2018-10-18T02:25:27.524Z,84.66
2018-10-18T02:27:54.924Z,84.75
2018-10-18T02:30:22.490Z,84.65
2018-10-18T02:32:49.808Z,84.96
2018-10-18T02:35:17.267Z,85.03
2018-10-18T02:37:44.718Z,85.01
2018-10-18T02:40:12.128Z,85.22
2018-10-18T02:42:39.500Z,85.10
2018-10-18T02:45:07.015Z,85.28
2018-10-18T02:47:34.762Z,85.28
2018-10-18T02:50:02.180Z,85.40
2018-10-18T02:52:29.816Z,85.48
2018-10-18T02:54:57.260Z,85.38
2018-10-18T02:57:24.679Z,85.78
2018-10-18T02:59:52.111Z,85.53
2018-10-18T03:02:19.499Z,85.54
2018-10-18T03:04:46.859Z,86.07
2018-10-18T03:07:14.579Z,85.68
2018-10-18T03:09:41.995Z,86.19
2018-10-18T03:12:09.691Z,86.02
2018-10-18T03:14:37.102Z,85.99
2018-10-18T03:17:04.952Z,86.11
2018-10-18T03:19:32.446Z,86.09
2018-10-18T03:21:59.873Z,86.09
2018-10-18T03:24:27.247Z,86.33
2018-10-18T03:26:54.684Z,85.98
2018-10-18T03:29:22.118Z,86.22
2018-10-18T03:31:49.547Z,86.35
2018-10-18T03:34:16.907Z,86.46
2018-10-18T03:36:44.423Z,86.70
2018-10-18T03:39:11.855Z,86.36
2018-10-18T03:41:39.283Z,86.48
2018-10-18T03:44:06.657Z,86.51
2018-10-18T03:46:34.356Z,86.43
2018-10-18T03:49:02.515Z,86.44
2018-10-18T03:51:29.995Z,86.25
2018-10-18T03:53:57.480Z,86.41
2018-10-18T03:56:24.898Z,86.53
2018-10-18T03:58:52.307Z,86.68
2018-10-18T04:01:19.717Z,86.58
2018-10-18T04:03:47.106Z,86.76
2018-10-18T04:06:15.431Z,86.59
2018-10-18T04:08:42.833Z,86.71
2018-10-18T04:11:10.311Z,86.68
2018-10-18T04:13:37.873Z,86.83
2018-10-18T04:16:05.300Z,86.74
2018-10-18T04:18:32.713Z,86.67
2018-10-18T04:21:00.121Z,86.97
2018-10-18T04:23:32.898Z,86.85
2018-10-18T04:26:01.398Z,86.90
2018-10-18T04:28:29.019Z,86.91
2018-10-18T04:30:56.570Z,86.61
2018-10-18T04:33:24.283Z,86.97
2018-10-18T04:35:52.010Z,86.92
2018-10-18T04:38:19.548Z,86.89
2018-10-18T04:40:46.985Z,87.12
2018-10-18T04:43:14.395Z,87.01
2018-10-18T04:45:42.441Z,87.26
2018-10-18T04:48:10.020Z,87.02
2018-10-18T04:50:37.460Z,87.08
2018-10-18T04:53:05.063Z,87.33
2018-10-18T04:55:32.515Z,87.51
2018-10-18T04:57:59.896Z,87.48
2018-10-18T05:00:28.225Z,87.63
2018-10-18T05:02:55.672Z,87.37
2018-10-18T05:05:34.522Z,87.61
2018-10-18T05:08:01.963Z,87.93
2018-10-18T05:10:29.400Z,87.58
2018-10-18T05:12:56.835Z,87.65
2018-10-18T05:15:24.312Z,87.61
2018-10-18T05:17:51.701Z,87.30
2018-10-18T05:20:19.129Z,87.26
2018-10-18T05:22:46.607Z,87.56
2018-10-18T05:25:14.106Z,87.61
2018-10-18T05:27:41.724Z,87.29
2018-10-18T05:30:09.292Z,87.59
2018-10-18T05:32:36.924Z,87.67
2018-10-18T05:35:04.699Z,87.55
2018-10-18T05:37:32.165Z,87.60
2018-10-18T05:39:59.966Z,87.66
2018-10-18T05:42:27.403Z,86.76
2018-10-18T05:44:54.863Z,86.33
2018-10-18T05:47:22.417Z,85.88
2018-10-18T05:49:49.791Z,84.85
2018-10-18T05:52:17.235Z,84.04
2018-10-18T05:54:44.585Z,83.18
2018-10-18T05:57:12.937Z,82.36
2018-10-18T05:59:40.373Z,81.56
2018-10-18T06:02:07.975Z,81.05
2018-10-18T06:04:35.403Z,80.17
2018-10-18T06:07:02.928Z,79.45
2018-10-18T06:09:32.647Z,78.88
2018-10-18T06:12:00.090Z,77.51
2018-10-18T06:14:27.730Z,76.63
2018-10-18T06:16:55.180Z,75.74
2018-10-18T06:19:22.592Z,75.52
2018-10-18T06:21:50.244Z,75.49
2018-10-18T06:24:17.623Z,74.66
2018-10-18T06:26:45.205Z,72.77
2018-10-18T06:29:12.827Z,71.57
2018-10-18T06:31:40.601Z,71.16
2018-10-18T06:34:08.067Z,70.92
2018-10-18T06:36:35.647Z,70.06
2018-10-18T06:39:05.055Z,69.73
2018-10-18T06:41:32.457Z,69.31
2018-10-18T06:44:00.045Z,68.79
2018-10-18T06:46:27.539Z,68.22
2018-10-18T06:48:55.453Z,67.13
2018-10-18T06:51:22.949Z,66.76
2018-10-18T06:53:50.373Z,67.22
2018-10-18T06:56:17.825Z,66.54
2018-10-18T06:58:45.307Z,66.80
2018-10-18T07:01:12.770Z,66.86
2018-10-18T07:03:40.205Z,66.79
2018-10-18T07:06:07.688Z,65.07
2018-10-18T07:08:35.101Z,64.32
2018-10-18T07:11:03.028Z,62.34
2018-10-18T07:13:30.417Z,61.16
2018-10-18T07:15:57.905Z,58.92
2018-10-18T07:18:25.424Z,53.87
2018-10-18T07:20:52.887Z,48.91
2018-10-18T07:23:20.321Z,46.68
2018-10-18T07:25:47.811Z,45.27
2018-10-18T07:28:15.386Z,44.35
2018-10-18T07:30:42.905Z,43.12
2018-10-18T07:33:10.384Z,40.08
2018-10-18T07:35:37.901Z,39.51
2018-10-18T07:38:05.435Z,39.85
2018-10-18T07:40:32.916Z,39.66
2018-10-18T07:43:00.421Z,37.33
2018-10-18T07:45:27.897Z,36.47
2018-10-18T07:47:55.483Z,37.30
2018-10-18T07:50:23.061Z,36.18
2018-10-18T07:52:50.506Z,35.72
2018-10-18T07:55:18.057Z,34.46
2018-10-18T07:57:45.660Z,33.86
2018-10-18T08:00:14.364Z,33.20
2018-10-18T08:02:42.469Z,35.62
2018-10-18T08:05:10.460Z,35.06
2018-10-18T08:07:38.205Z,35.71
2018-10-18T08:10:08.099Z,34.27
2018-10-18T08:12:35.752Z,34.00
2018-10-18T08:15:03.408Z,33.33
2018-10-18T08:17:30.962Z,32.79
2018-10-18T08:19:58.374Z,32.79
2018-10-18T08:22:26.051Z,32.55
2018-10-18T08:24:53.515Z,33.71
2018-10-18T08:27:21.137Z,34.75
2018-10-18T08:29:48.570Z,35.28
2018-10-18T08:32:16.070Z,35.21
2018-10-18T08:34:43.794Z,34.89
2018-10-18T08:37:11.307Z,34.73
2018-10-18T08:39:39.581Z,34.63
2018-10-18T08:42:07.158Z,33.78
2018-10-18T08:44:34.762Z,34.32
2018-10-18T08:47:02.107Z,34.51
2018-10-18T08:49:29.609Z,33.91
2018-10-18T08:51:57.090Z,33.34
2018-10-18T08:54:24.546Z,33.05
2018-10-18T08:56:52.047Z,33.86
2018-10-18T08:59:19.526Z,35.70
2018-10-18T09:01:46.952Z,40.57
2018-10-18T09:04:14.418Z,44.80
2018-10-18T09:06:41.910Z,48.01
2018-10-18T09:09:09.651Z,50.21
2018-10-18T09:11:37.230Z,53.74
2018-10-18T09:14:05.566Z,55.29
2018-10-18T09:16:33.002Z,57.26
2018-10-18T09:19:00.551Z,57.43
2018-10-18T09:21:27.989Z,57.68
2018-10-18T09:23:55.512Z,58.28
2018-10-18T09:26:22.965Z,57.83
2018-10-18T09:28:50.510Z,58.47
2018-10-18T09:31:18.205Z,58.96
2018-10-18T09:33:45.615Z,59.12
2018-10-18T09:36:13.058Z,59.09
2018-10-18T09:38:40.558Z,58.65
2018-10-18T09:41:08.257Z,58.44
2018-10-18T09:43:35.682Z,58.11
2018-10-18T09:46:03.259Z,57.94
2018-10-18T09:48:30.714Z,58.34
2018-10-18T09:50:58.392Z,58.08
2018-10-18T09:53:25.838Z,58.38
2018-10-18T09:55:53.380Z,59.21
2018-10-18T09:58:20.746Z,59.66
2018-10-18T10:00:53.991Z,59.65
2018-10-18T10:03:21.703Z,59.64
2018-10-18T10:05:49.143Z,59.22
2018-10-18T10:08:16.605Z,59.63
2018-10-18T10:10:44.049Z,58.78
2018-10-18T10:13:11.655Z,59.00
2018-10-18T10:15:38.943Z,59.26
2018-10-18T10:18:06.375Z,58.67
2018-10-18T10:20:33.807Z,58.83
2018-10-18T10:23:01.369Z,58.66
2018-10-18T10:25:28.883Z,58.35
2018-10-18T10:27:56.899Z,58.28
2018-10-18T10:30:24.811Z,58.50
2018-10-18T10:32:52.242Z,58.49
2018-10-18T10:35:19.727Z,58.28
2018-10-18T10:37:47.213Z,58.35
2018-10-18T10:40:14.736Z,57.98
2018-10-18T10:42:42.410Z,57.50
2018-10-18T10:45:11.260Z,57.36
2018-10-18T10:47:38.594Z,56.44
2018-10-18T10:50:06.777Z,56.58
2018-10-18T10:52:34.229Z,56.16
2018-10-18T10:55:01.724Z,56.36
2018-10-18T10:57:29.454Z,56.42
2018-10-18T10:59:57.014Z,56.82
2018-10-18T11:02:24.374Z,57.19
2018-10-18T11:04:51.939Z,57.19
2018-10-18T11:07:19.838Z,56.70
2018-10-18T11:09:47.411Z,56.55
2018-10-18T11:12:14.835Z,56.01
2018-10-18T11:14:42.292Z,56.09
2018-10-18T11:17:09.918Z,56.59
2018-10-18T11:19:37.284Z,56.90
2018-10-18T11:22:05.776Z,56.55
2018-10-18T11:24:33.234Z,56.17
2018-10-18T11:27:00.706Z,56.51
2018-10-18T11:29:28.618Z,56.78
2018-10-18T11:31:56.528Z,56.41
2018-10-18T11:34:24.056Z,56.05
2018-10-18T11:36:51.576Z,55.71
2018-10-18T11:39:19.167Z,55.58
2018-10-18T11:41:46.614Z,55.62
2018-10-18T11:44:14.184Z,55.77
2018-10-18T11:46:41.571Z,55.92
2018-10-18T11:49:09.135Z,55.74
2018-10-18T11:51:36.743Z,55.36
2018-10-18T11:54:04.689Z,55.84
2018-10-18T11:56:32.359Z,55.79
2018-10-18T11:58:59.986Z,55.45
2018-10-18T12:01:27.948Z,55.23
2018-10-18T12:03:55.414Z,55.62
2018-10-18T12:06:22.985Z,55.31
2018-10-18T12:08:50.506Z,54.89
2018-10-18T12:11:18.095Z,54.82
2018-10-18T12:13:45.519Z,54.30
2018-10-18T12:16:12.994Z,53.74
2018-10-18T12:18:40.541Z,53.63
2018-10-18T12:21:08.064Z,53.59
2018-10-18T12:23:35.565Z,53.80
2018-10-18T12:26:03.062Z,54.05
2018-10-18T12:28:30.488Z,54.51
2018-10-18T12:30:57.943Z,54.47
2018-10-18T12:33:25.378Z,54.15
2018-10-18T12:35:52.993Z,53.86
2018-10-18T12:38:20.536Z,54.08
2018-10-18T12:40:48.118Z,53.99
2018-10-18T12:43:15.538Z,54.18
2018-10-18T12:45:42.986Z,53.59
2018-10-18T12:48:10.529Z,53.43
2018-10-18T12:50:38.034Z,53.53
2018-10-18T12:53:05.486Z,53.68
2018-10-18T12:55:32.983Z,54.09
2018-10-18T12:58:00.910Z,54.37
2018-10-18T13:00:28.378Z,54.21
2018-10-18T13:02:55.886Z,54.47
2018-10-18T13:05:23.396Z,54.50
2018-10-18T13:07:50.790Z,54.45
2018-10-18T13:10:18.286Z,54.71
2018-10-18T13:12:45.793Z,55.14
2018-10-18T13:15:13.199Z,55.21
2018-10-18T13:17:40.713Z,55.27
2018-10-18T13:20:09.444Z,55.73
2018-10-18T13:22:37.051Z,56.00
2018-10-18T13:25:06.023Z,56.07
2018-10-18T13:27:33.539Z,56.02
2018-10-18T13:30:01.069Z,56.30
2018-10-18T13:32:28.473Z,56.32
2018-10-18T13:34:56.299Z,55.79
2018-10-18T13:37:23.769Z,56.45
2018-10-18T13:39:51.191Z,56.24
2018-10-18T13:42:18.750Z,56.23
2018-10-18T13:44:46.121Z,55.71
2018-10-18T13:47:13.662Z,55.80
2018-10-18T13:49:41.133Z,55.37
2018-10-18T13:52:08.581Z,55.04
2018-10-18T13:54:36.003Z,55.25
2018-10-18T13:57:03.815Z,54.81
2018-10-18T13:59:42.914Z,55.07
2018-10-18T14:02:10.368Z,55.32
2018-10-18T14:04:37.823Z,54.74
2018-10-18T14:07:05.377Z,54.89
2018-10-18T14:09:32.821Z,54.71
2018-10-18T14:12:00.370Z,55.10
2018-10-18T14:14:27.802Z,54.96
2018-10-18T14:16:55.282Z,54.56
2018-10-18T14:19:23.067Z,54.93
2018-10-18T14:21:50.675Z,55.21
2018-10-18T14:24:18.130Z,54.86
2018-10-18T14:26:45.597Z,54.95
2018-10-18T14:29:13.165Z,54.93
2018-10-18T14:31:40.567Z,54.97
2018-10-18T14:34:08.224Z,54.52
2018-10-18T14:36:35.701Z,54.57
2018-10-18T14:39:03.925Z,54.91
2018-10-18T14:41:31.322Z,54.60
2018-10-18T14:43:58.876Z,54.74
2018-10-18T14:46:26.507Z,55.36
2018-10-18T14:48:54.244Z,55.61
2018-10-18T14:51:21.745Z,55.88
2018-10-18T14:53:49.187Z,56.00
2018-10-18T14:56:16.693Z,55.61
2018-10-18T14:58:44.072Z,55.91
2018-10-18T15:01:11.573Z,56.14
2018-10-18T15:03:39.043Z,56.12
2018-10-18T15:06:06.485Z,56.63
2018-10-18T15:08:33.936Z,57.11
2018-10-18T15:11:01.650Z,57.38
2018-10-18T15:13:29.055Z,57.39
2018-10-18T15:15:56.619Z,57.54
2018-10-18T15:18:24.070Z,57.80
2018-10-18T15:20:51.482Z,57.96
2018-10-18T15:23:18.958Z,58.56
2018-10-18T15:25:46.599Z,58.36
2018-10-18T15:28:13.920Z,58.64
2018-10-18T15:30:41.461Z,58.47
2018-10-18T15:33:08.882Z,58.28
2018-10-18T15:35:36.385Z,58.58
2018-10-18T15:38:04.423Z,58.64
2018-10-18T15:40:31.902Z,59.10
2018-10-18T15:42:59.402Z,59.69
2018-10-18T15:45:26.913Z,59.17
2018-10-18T15:47:54.350Z,60.14
2018-10-18T15:50:21.813Z,60.77
2018-10-18T15:52:49.322Z,60.88
2018-10-18T15:55:16.795Z,61.25
2018-10-18T15:57:44.237Z,61.31
2018-10-18T16:00:11.961Z,61.72
2018-10-18T16:02:39.871Z,61.84
2018-10-18T16:05:07.499Z,62.53
2018-10-18T16:07:34.969Z,61.92
2018-10-18T16:10:02.539Z,61.81
2018-10-18T16:12:30.118Z,62.46
2018-10-18T16:14:57.677Z,62.20
2018-10-18T16:17:25.233Z,62.69
2018-10-18T16:19:52.730Z,62.56
2018-10-18T16:22:20.655Z,62.54
2018-10-18T16:24:48.189Z,62.74
2018-10-18T16:27:15.876Z,62.43
2018-10-18T16:29:43.373Z,62.85
2018-10-18T16:32:10.951Z,62.83
2018-10-18T16:34:38.330Z,63.37
2018-10-18T16:37:06.170Z,64.23
2018-10-18T16:39:33.830Z,64.10
2018-10-18T16:42:01.346Z,64.57
2018-10-18T16:44:28.876Z,65.22
2018-10-18T16:46:56.312Z,64.88
2018-10-18T16:49:23.721Z,65.37
2018-10-18T16:51:51.213Z,65.67
2018-10-18T16:54:18.710Z,65.99
2018-10-18T16:56:46.184Z,66.23
2018-10-18T16:59:13.689Z,66.12
2018-10-18T17:01:41.190Z,66.63
2018-10-18T17:04:08.715Z,66.51
2018-10-18T17:06:36.304Z,66.13
2018-10-18T17:09:05.630Z,66.64
2018-10-18T17:11:33.252Z,66.78
2018-10-18T17:14:00.912Z,67.16
2018-10-18T17:16:28.458Z,66.72
2018-10-18T17:18:55.938Z,66.94
2018-10-18T17:21:23.442Z,67.33
2018-10-18T17:23:50.880Z,67.80
2018-10-18T17:26:18.409Z,67.81
2018-10-18T17:28:45.901Z,68.17
2018-10-18T17:31:13.404Z,68.13
2018-10-18T17:33:40.819Z,68.73
2018-10-18T17:36:08.403Z,68.60
2018-10-18T17:38:35.935Z,68.50
2018-10-18T17:41:03.772Z,69.30
2018-10-18T17:43:31.316Z,69.52
2018-10-18T17:45:58.944Z,69.45
2018-10-18T17:48:26.374Z,69.40
2018-10-18T17:50:54.006Z,69.63
2018-10-18T17:53:21.558Z,69.74
2018-10-18T17:55:49.179Z,69.35
2018-10-18T17:58:16.762Z,69.96
2018-10-18T18:00:44.842Z,70.27
2018-10-18T18:03:13.144Z,70.59
2018-10-18T18:05:41.255Z,70.68
2018-10-18T18:08:09.497Z,70.98
2018-10-18T18:10:38.152Z,70.52
2018-10-18T18:13:06.588Z,70.63
2018-10-18T18:15:34.861Z,70.76
2018-10-18T18:18:03.328Z,70.72
2018-10-18T18:20:31.565Z,71.11
2018-10-18T18:22:59.932Z,71.33
2018-10-18T18:25:27.426Z,71.26
2018-10-18T18:27:54.929Z,71.26
2018-10-18T18:30:22.378Z,71.39
2018-10-18T18:32:49.821Z,71.37
2018-10-18T18:35:17.427Z,71.91
2018-10-18T18:37:44.954Z,72.16
2018-10-18T18:40:12.458Z,72.37
2018-10-18T18:42:40.532Z,72.67
2018-10-18T18:45:13.785Z,72.83
2018-10-18T18:47:41.359Z,72.79
2018-10-18T18:50:09.229Z,73.07
2018-10-18T18:52:36.707Z,73.16
2018-10-18T18:55:05.068Z,73.38
2018-10-18T18:57:32.471Z,73.65
2018-10-18T18:59:59.957Z,73.51
2018-10-18T19:02:27.446Z,73.47
2018-10-18T19:04:54.936Z,73.66
2018-10-18T19:07:22.467Z,74.07
2018-10-18T19:09:49.975Z,74.49
2018-10-18T19:12:17.550Z,74.44
2018-10-18T19:14:44.987Z,73.79
2018-10-18T19:17:12.523Z,73.71
2018-10-18T19:19:40.019Z,74.42
2018-10-18T19:22:07.870Z,74.35
2018-10-18T19:24:35.384Z,74.46
2018-10-18T19:27:03.117Z,74.71
2018-10-18T19:29:30.537Z,74.70
2018-10-18T19:31:58.235Z,74.99
2018-10-18T19:34:25.611Z,74.88
2018-10-18T19:36:53.130Z,74.72
2018-10-18T19:39:20.942Z,75.28
2018-10-18T19:41:48.416Z,74.97
2018-10-18T19:44:15.828Z,75.14
2018-10-18T19:46:43.258Z,74.77
2018-10-18T19:49:10.790Z,74.71
2018-10-18T19:51:38.229Z,74.99
2018-10-18T19:54:05.696Z,74.83
2018-10-18T19:56:33.331Z,75.18
2018-10-18T19:59:00.879Z,74.53
2018-10-18T20:01:28.452Z,75.03
2018-10-18T20:03:55.922Z,74.67
2018-10-18T20:06:25.031Z,74.95
2018-10-18T20:08:52.511Z,74.86
2018-10-18T20:11:20.040Z,75.07
2018-10-18T20:13:47.449Z,74.97
2018-10-18T20:16:15.022Z,74.98
2018-10-18T20:18:42.519Z,75.25
2018-10-18T20:21:10.091Z,75.31
2018-10-18T20:23:37.643Z,75.16
2018-10-18T20:26:05.449Z,75.35
2018-10-18T20:28:32.708Z,75.35
2018-10-18T20:31:00.306Z,75.00
2018-10-18T20:33:27.721Z,74.55
2018-10-18T20:35:55.185Z,74.77
2018-10-18T20:38:22.639Z,75.45
2018-10-18T20:40:50.060Z,75.62
2018-10-18T20:43:17.487Z,75.65
2018-10-18T20:45:45.019Z,75.72
2018-10-18T20:48:12.610Z,75.91
2018-10-18T20:50:39.933Z,76.10
2018-10-18T20:53:07.450Z,76.00
2018-10-18T20:55:34.879Z,76.03
2018-10-18T20:58:02.390Z,76.36
2018-10-18T21:00:29.888Z,75.85
2018-10-18T21:02:57.449Z,76.14
2018-10-18T21:05:24.866Z,76.28
2018-10-18T21:07:52.357Z,76.36
2018-10-18T21:10:19.805Z,76.08
2018-10-18T21:12:47.457Z,76.29
2018-10-18T21:15:17.054Z,76.42
2018-10-18T21:17:44.953Z,76.39
2018-10-18T21:20:12.496Z,77.04
2018-10-18T21:22:39.990Z,77.03
2018-10-18T21:25:07.720Z,77.28
2018-10-18T21:27:35.233Z,77.00
2018-10-18T21:30:02.685Z,77.19
2018-10-18T21:32:30.137Z,76.82
2018-10-18T21:34:57.531Z,76.75
2018-10-18T21:37:25.021Z,76.04
2018-10-18T21:39:52.569Z,76.43
2018-10-18T21:42:20.239Z,76.67
2018-10-18T21:44:48.372Z,76.68
2018-10-18T21:47:16.390Z,75.99
2018-10-18T21:49:43.788Z,76.36
2018-10-18T21:52:11.268Z,75.88
2018-10-18T21:54:38.683Z,75.65
2018-10-18T21:57:06.325Z,75.97
2018-10-18T21:59:33.716Z,75.54
2018-10-18T22:02:01.157Z,75.80
2018-10-18T22:04:28.617Z,75.80
2018-10-18T22:06:56.113Z,75.09
2018-10-18T22:09:23.519Z,75.24
2018-10-18T22:11:50.971Z,74.82
2018-10-18T22:14:18.431Z,75.00
2018-10-18T22:16:45.955Z,75.02
2018-10-18T22:19:13.361Z,75.17
2018-10-18T22:21:40.883Z,74.76
2018-10-18T22:24:09.758Z,74.97
2018-10-18T22:26:37.226Z,74.86
2018-10-18T22:29:05.444Z,74.83
2018-10-18T22:31:32.758Z,74.88
2018-10-18T22:34:00.182Z,75.37
2018-10-18T22:36:27.798Z,74.96
2018-10-18T22:38:55.416Z,75.31
2018-10-18T22:41:23.068Z,74.88
2018-10-18T22:43:50.654Z,75.06
2018-10-18T22:46:18.199Z,75.09
2018-10-18T22:48:45.600Z,75.37
2018-10-18T22:51:13.125Z,75.23
2018-10-18T22:53:40.486Z,75.15
2018-10-18T22:56:07.894Z,75.79
2018-10-18T22:58:35.326Z,75.49
2018-10-18T23:01:02.769Z,76.24
2018-10-18T23:03:30.174Z,75.54
2018-10-18T23:05:57.684Z,75.67
2018-10-18T23:08:25.084Z,75.84
2018-10-18T23:10:52.490Z,75.83
2018-10-18T23:13:20.026Z,76.22
2018-10-18T23:15:47.551Z,76.34
2018-10-18T23:18:15.009Z,76.06
2018-10-18T23:20:42.425Z,76.31
2018-10-18T23:23:10.473Z,76.45
2018-10-18T23:25:38.256Z,76.82
2018-10-18T23:28:06.081Z,76.87
2018-10-18T23:30:33.513Z,76.27
2018-10-18T23:33:01.120Z,76.29
2018-10-18T23:35:28.698Z,75.72
2018-10-18T23:37:56.105Z,76.41
2018-10-18T23:40:23.557Z,76.31
2018-10-18T23:42:51.049Z,76.05
2018-10-18T23:45:20.382Z,76.18
2018-10-18T23:47:48.735Z,76.14
2018-10-18T23:50:16.293Z,76.45
2018-10-18T23:52:43.730Z,76.56
2018-10-18T23:55:11.276Z,76.72
2018-10-18T23:57:39.334Z,76.37
